Time;durP1;ratioP1;P1;durP2;ratioP2;P2;SDS_P1;SDS_P2;PMS_P1;PMS_P2;Temp;Humidity;BMP_temperature;BMP_pressure;BME280_temperature;BME280_humidity;BME280_pressure;Samples;Min_cycle;Max_cycle;Signal;HPM_P1;HPM_P2
2022/05/14 00:01:00;;;;;;;72.53;50.65;;;19.10;55.40;;;;;;4917148;28;93175;-43
2022/05/14 00:03:27;;;;;;;71.80;50.33;;;19.00;55.70;;;;;;4927285;28;89577;-41
2022/05/14 00:05:54;;;;;;;72.30;50.40;;;19.00;55.60;;;;;;4915209;28;95883;-43
2022/05/14 00:08:22;;;;;;;72.38;50.58;;;19.00;55.50;;;;;;4921824;28;94746;-42
2022/05/14 00:13:31;;;;;;;71.57;50.42;;;18.90;55.90;;;;;;4912905;28;90552;-40
2022/05/14 00:15:57;;;;;;;71.95;50.50;;;18.90;55.80;;;;;;4921811;28;90006;-43
2022/05/14 00:18:23;;;;;;;71.90;50.45;;;18.90;55.90;;;;;;4929084;28;89504;-40
2022/05/14 00:20:50;;;;;;;71.97;50.28;;;18.90;55.80;;;;;;4922064;28;90957;-40
2022/05/14 00:23:16;;;;;;;71.72;50.25;;;18.90;55.90;;;;;;4923038;28;89235;-43
2022/05/14 00:25:43;;;;;;;70.80;50.28;;;18.90;55.90;;;;;;4910979;28;93014;-41
2022/05/14 00:28:09;;;;;;;71.93;50.35;;;18.90;55.90;;;;;;4924409;28;89957;-45
2022/05/14 00:30:36;;;;;;;71.03;50.15;;;18.90;55.90;;;;;;4921249;28;91269;-42
2022/05/14 00:33:03;;;;;;;72.47;50.55;;;18.80;56.50;;;;;;4926325;28;91461;-43
2022/05/14 00:35:30;;;;;;;71.80;50.38;;;18.80;56.10;;;;;;4928098;28;92103;-41
2022/05/14 00:37:56;;;;;;;71.93;50.35;;;18.80;55.80;;;;;;4925270;28;89979;-43
2022/05/14 00:40:27;;;;;;;72.07;50.35;;;18.80;56.10;;;;;;4927804;28;90235;-42
2022/05/14 00:42:53;;;;;;;70.85;50.25;;;18.80;55.90;;;;;;4913845;28;92171;-42
2022/05/14 00:45:20;;;;;;;72.68;50.50;;;18.80;56.30;;;;;;4913364;28;91504;-43
2022/05/14 00:47:51;;;;;;;71.55;50.15;;;18.70;56.50;;;;;;4923876;28;92373;-43
2022/05/14 00:50:46;;;;;;;71.68;50.17;;;18.70;56.20;;;;;;4919311;28;90545;-41
2022/05/14 00:53:27;;;;;;;71.38;50.55;;;18.70;56.30;;;;;;4918070;28;90141;-43
2022/05/14 00:55:56;;;;;;;71.43;50.40;;;18.70;56.20;;;;;;4921882;28;91208;-40
2022/05/14 00:58:35;;;;;;;73.00;50.33;;;18.70;56.30;;;;;;4923183;28;90066;-42
2022/05/14 01:01:01;;;;;;;70.68;50.22;;;18.70;56.40;;;;;;4927140;28;93061;-42
2022/05/14 01:03:26;;;;;;;71.45;50.28;;;18.60;56.30;;;;;;4924087;28;89952;-45
2022/05/14 01:05:53;;;;;;;71.07;49.85;;;18.70;56.40;;;;;;4920236;28;90243;-42
2022/05/14 01:08:19;;;;;;;71.82;50.15;;;18.60;56.40;;;;;;4921183;28;93192;-41
2022/05/14 01:10:46;;;;;;;72.13;50.22;;;18.70;56.40;;;;;;4930494;28;91681;-40
2022/05/14 01:13:13;;;;;;;71.30;50.10;;;18.60;56.30;;;;;;4916322;28;92819;-40
2022/05/14 01:15:43;;;;;;;70.70;50.05;;;18.60;56.50;;;;;;4927639;28;91508;-42
2022/05/14 01:18:10;;;;;;;71.80;50.25;;;18.60;56.40;;;;;;4920202;28;90625;-40
2022/05/14 01:20:36;;;;;;;70.65;49.92;;;18.60;56.40;;;;;;4918865;28;91394;-41
2022/05/14 01:23:12;;;;;;;71.35;50.25;;;18.60;56.70;;;;;;4924463;28;90756;-42
2022/05/14 01:28:22;;;;;;;70.82;50.03;;;18.50;56.60;;;;;;4925971;28;89952;-41
2022/05/14 01:30:55;;;;;;;71.60;50.10;;;18.50;56.70;;;;;;4928844;28;90262;-40
2022/05/14 01:33:21;;;;;;;71.15;50.13;;;18.50;56.70;;;;;;4929987;28;89864;-40
2022/05/14 01:35:48;;;;;;;70.43;50.15;;;18.50;56.60;;;;;;4930173;28;90758;-42
2022/05/14 01:38:14;;;;;;;70.80;50.05;;;18.50;56.60;;;;;;4920768;28;89104;-43
2022/05/14 01:40:40;;;;;;;71.03;50.25;;;18.50;56.70;;;;;;4935161;28;92596;-40
2022/05/14 01:43:06;;;;;;;71.30;49.97;;;18.50;56.60;;;;;;4921790;28;90670;-40
2022/05/14 01:45:33;;;;;;;71.38;50.28;;;18.40;57.30;;;;;;4920778;28;91440;-42
2022/05/14 01:47:58;;;;;;;71.25;49.97;;;18.40;56.50;;;;;;4928842;28;89573;-42
2022/05/14 01:50:24;;;;;;;70.80;50.03;;;18.40;56.60;;;;;;4926913;28;90971;-44
2022/05/14 01:52:50;;;;;;;71.35;50.28;;;18.40;56.80;;;;;;4925086;28;89997;-40
2022/05/14 01:55:16;;;;;;;70.47;49.95;;;18.40;56.80;;;;;;4921563;28;90070;-44
2022/05/14 01:57:41;;;;;;;70.97;50.13;;;18.40;56.80;;;;;;4934500;28;92096;-43
2022/05/14 02:00:11;;;;;;;70.68;50.00;;;18.40;56.80;;;;;;4923596;28;95458;-43
2022/05/14 02:02:37;;;;;;;71.70;50.25;;;18.40;56.70;;;;;;4926953;28;90096;-43
2022/05/14 02:05:03;;;;;;;71.07;50.05;;;18.40;56.80;;;;;;4923618;28;92410;-43
2022/05/14 02:07:28;;;;;;;71.45;50.15;;;18.30;56.70;;;;;;4919262;28;90019;-42
2022/05/14 02:09:54;;;;;;;71.18;50.15;;;18.30;56.80;;;;;;4925794;28;91294;-43
2022/05/14 02:12:20;;;;;;;70.85;50.33;;;18.30;56.90;;;;;;4925337;28;91920;-45
2022/05/14 02:14:45;;;;;;;71.40;50.17;;;18.30;56.80;;;;;;4908708;28;91759;-47
2022/05/14 02:17:12;;;;;;;72.13;50.30;;;18.30;57.00;;;;;;4924252;28;92097;-44
2022/05/14 02:19:37;;;;;;;70.53;50.05;;;18.30;57.50;;;;;;4925749;28;90568;-46
2022/05/14 02:22:05;;;;;;;70.88;49.95;;;18.30;56.80;;;;;;4929804;28;91168;-42
2022/05/14 02:24:35;;;;;;;70.65;50.20;;;18.20;57.10;;;;;;4926857;28;89644;-42
2022/05/14 02:27:01;;;;;;;70.03;49.97;;;18.20;57.00;;;;;;4923447;28;90383;-42
2022/05/14 02:29:27;;;;;;;71.18;50.10;;;18.20;56.90;;;;;;4927537;28;91071;-42
2022/05/14 02:31:53;;;;;;;70.15;49.80;;;18.20;56.90;;;;;;4924376;28;89999;-43
2022/05/14 02:34:18;;;;;;;70.93;50.22;;;18.20;57.50;;;;;;4914784;28;97151;-43
2022/05/14 02:36:44;;;;;;;71.38;50.03;;;18.20;57.10;;;;;;4922435;28;90745;-44
2022/05/14 02:39:10;;;;;;;70.00;49.92;;;18.20;57.10;;;;;;4926553;28;89854;-44
2022/05/14 02:41:36;;;;;;;70.78;49.83;;;18.20;57.10;;;;;;4928780;28;90165;-41
2022/05/14 02:44:02;;;;;;;72.57;49.97;;;18.20;57.20;;;;;;4918146;28;90593;-42
2022/05/14 02:46:28;;;;;;;71.82;49.95;;;18.20;57.30;;;;;;4922671;28;91070;-41
2022/05/14 02:48:53;;;;;;;70.65;50.15;;;18.20;57.10;;;;;;4926374;28;90376;-41
2022/05/14 02:51:19;;;;;;;71.03;50.05;;;18.10;57.20;;;;;;4920472;28;89218;-41
2022/05/14 02:53:45;;;;;;;69.93;49.67;;;18.10;57.20;;;;;;4915030;28;89859;-43
2022/05/14 02:56:10;;;;;;;71.95;50.10;;;18.10;57.20;;;;;;4925237;28;90406;-41
2022/05/14 03:01:20;;;;;;;70.65;49.88;;;18.10;57.10;;;;;;4922278;28;90044;-43
2022/05/14 03:03:46;;;;;;;70.25;50.03;;;18.10;57.30;;;;;;4923361;28;90217;-43
2022/05/14 03:06:12;;;;;;;69.75;49.95;;;18.10;57.20;;;;;;4926122;28;90999;-39
2022/05/14 03:08:38;;;;;;;69.97;49.95;;;18.10;57.50;;;;;;4918601;28;91745;-41
2022/05/14 03:11:04;;;;;;;70.60;50.05;;;18.00;57.10;;;;;;4919905;28;89917;-41
2022/05/14 03:13:30;;;;;;;70.82;50.10;;;18.00;57.10;;;;;;4920057;28;95999;-40
2022/05/14 03:15:56;;;;;;;70.63;50.05;;;18.00;57.20;;;;;;4920395;28;89980;-42
2022/05/14 03:18:22;;;;;;;70.88;49.85;;;18.00;57.20;;;;;;4927822;28;90030;-42
2022/05/14 03:20:48;;;;;;;70.68;50.05;;;18.00;57.20;;;;;;4925841;28;93523;-45
2022/05/14 03:23:15;;;;;;;70.05;49.95;;;18.00;57.20;;;;;;4919330;28;90906;-43
2022/05/14 03:25:41;;;;;;;70.22;50.00;;;18.00;57.20;;;;;;4922820;28;90929;-44
2022/05/14 03:28:06;;;;;;;70.38;49.85;;;18.00;57.50;;;;;;4927810;28;90124;-45
2022/05/14 03:30:32;;;;;;;69.63;49.83;;;18.00;57.30;;;;;;4928617;28;89854;-45
2022/05/14 03:32:58;;;;;;;72.20;49.85;;;18.00;57.20;;;;;;4920306;28;94891;-43
2022/05/14 03:35:24;;;;;;;70.68;50.05;;;18.00;57.50;;;;;;4926707;28;90252;-44
2022/05/14 03:37:50;;;;;;;69.70;49.75;;;18.00;57.10;;;;;;4924819;28;90320;-43
2022/05/14 03:40:16;;;;;;;69.68;49.60;;;17.90;57.10;;;;;;4922819;28;90108;-44
2022/05/14 03:42:42;;;;;;;70.30;49.78;;;17.90;57.40;;;;;;4927105;28;90743;-41
2022/05/14 03:45:08;;;;;;;69.85;49.67;;;17.90;57.20;;;;;;4910792;28;90955;-44
2022/05/14 03:47:34;;;;;;;71.22;49.95;;;17.90;57.60;;;;;;4919880;28;96050;-42
2022/05/14 03:50:00;;;;;;;71.68;49.85;;;17.90;57.70;;;;;;4919322;28;90831;-45
2022/05/14 03:52:26;;;;;;;70.03;49.92;;;18.00;57.40;;;;;;4924454;28;90290;-42
2022/05/14 03:54:52;;;;;;;69.85;49.80;;;18.00;57.40;;;;;;4922658;28;90709;-42
2022/05/14 03:57:17;;;;;;;69.35;49.67;;;18.00;57.20;;;;;;4929866;28;90300;-42
2022/05/14 03:59:43;;;;;;;69.82;49.90;;;17.90;57.40;;;;;;4937219;28;93063;-42
2022/05/14 04:02:09;;;;;;;70.90;50.03;;;17.90;57.20;;;;;;4922449;28;89978;-46
2022/05/14 04:04:35;;;;;;;70.15;50.03;;;17.90;57.40;;;;;;4932369;28;89066;-41
2022/05/14 04:07:01;;;;;;;68.97;49.47;;;17.90;57.40;;;;;;4931423;28;89558;-43
2022/05/14 04:09:26;;;;;;;69.75;49.63;;;17.90;57.30;;;;;;4917958;28;90238;-41
2022/05/14 04:11:54;;;;;;;70.45;49.72;;;17.90;57.70;;;;;;4917464;28;96414;-42
2022/05/14 04:14:20;;;;;;;69.80;49.92;;;17.90;57.50;;;;;;4919498;28;90056;-43
2022/05/14 04:16:46;;;;;;;69.47;49.75;;;17.90;57.60;;;;;;4930481;28;90907;-41
2022/05/14 04:19:12;;;;;;;69.90;49.65;;;17.90;57.30;;;;;;4933849;28;89931;-42
2022/05/14 04:21:38;;;;;;;69.63;49.75;;;17.90;57.50;;;;;;4927962;28;90118;-46
2022/05/14 04:24:05;;;;;;;69.60;49.78;;;17.90;57.50;;;;;;4930997;28;92075;-43
2022/05/14 04:26:30;;;;;;;69.82;49.55;;;17.90;57.40;;;;;;4920478;28;90807;-41
2022/05/14 04:28:56;;;;;;;69.93;49.80;;;17.90;57.10;;;;;;4918513;28;95165;-43
2022/05/14 04:31:22;;;;;;;70.68;49.65;;;17.90;57.30;;;;;;4928164;28;90334;-42
2022/05/14 04:33:48;;;;;;;70.10;49.85;;;17.90;57.10;;;;;;4922880;28;89563;-43
2022/05/14 04:36:14;;;;;;;69.85;49.60;;;17.90;57.10;;;;;;4928719;28;91104;-44
2022/05/14 04:38:41;;;;;;;70.60;49.90;;;17.90;57.20;;;;;;4919201;28;91605;-43
2022/05/14 04:41:07;;;;;;;70.07;49.90;;;17.90;57.20;;;;;;4926809;28;90003;-46
2022/05/14 04:43:33;;;;;;;69.20;49.75;;;17.90;57.30;;;;;;4920703;28;92833;-43
2022/05/14 04:45:58;;;;;;;69.63;49.53;;;17.90;57.10;;;;;;4913890;28;90705;-42
2022/05/14 04:48:24;;;;;;;69.57;49.72;;;18.00;57.10;;;;;;4925413;28;90661;-44
2022/05/14 04:50:54;;;;;;;70.35;49.80;;;17.90;57.20;;;;;;4920025;28;90725;-44
2022/05/14 04:53:19;;;;;;;70.15;49.88;;;17.90;56.90;;;;;;4927845;28;89243;-43
2022/05/14 04:55:47;;;;;;;69.82;49.72;;;17.90;57.10;;;;;;4923891;28;89976;-42
2022/05/14 04:58:13;;;;;;;70.35;49.75;;;18.00;57.00;;;;;;4925970;28;89800;-42
2022/05/14 05:00:41;;;;;;;69.30;49.83;;;18.00;57.10;;;;;;4919333;28;91353;-43
2022/05/14 05:03:22;;;;;;;68.93;49.58;;;18.00;57.00;;;;;;4923300;28;90563;-46
2022/05/14 05:05:53;;;;;;;68.78;49.53;;;18.00;57.00;;;;;;4922892;28;90717;-42
2022/05/14 05:08:19;;;;;;;68.95;49.63;;;18.00;57.00;;;;;;4924327;28;91005;-41
2022/05/14 05:10:45;;;;;;;68.85;49.75;;;18.00;57.00;;;;;;4920494;28;90839;-43
2022/05/14 05:13:31;;;;;;;70.85;49.83;;;18.00;56.70;;;;;;4924080;28;90615;-44
2022/05/14 05:15:57;;;;;;;70.00;49.83;;;18.00;57.00;;;;;;4914824;28;91235;-44
2022/05/14 05:18:24;;;;;;;70.05;49.80;;;18.00;57.00;;;;;;4925209;28;89284;-40
2022/05/14 05:20:52;;;;;;;69.68;49.72;;;18.00;56.80;;;;;;4923482;28;90014;-42
2022/05/14 05:23:19;;;;;;;70.43;50.10;;;18.00;56.90;;;;;;4927929;28;90216;-41
2022/05/14 05:25:46;;;;;;;70.38;49.83;;;18.10;56.90;;;;;;4918403;28;90831;-44
2022/05/14 05:28:12;;;;;;;68.97;49.58;;;18.00;57.30;;;;;;4920331;28;89871;-45
2022/05/14 05:30:38;;;;;;;69.00;49.70;;;18.10;56.70;;;;;;4912579;28;90204;-44
2022/05/14 05:33:03;;;;;;;70.45;49.75;;;18.10;56.50;;;;;;4928466;28;89872;-42
2022/05/14 05:35:29;;;;;;;69.45;49.63;;;18.10;56.50;;;;;;4920054;28;90585;-44
2022/05/14 05:37:55;;;;;;;72.10;50.13;;;18.10;56.40;;;;;;4936823;28;89865;-43
2022/05/14 05:40:21;;;;;;;70.03;49.63;;;18.10;56.50;;;;;;4927468;28;90283;-45
2022/05/14 05:42:47;;;;;;;68.93;49.65;;;18.10;56.40;;;;;;4930408;28;89809;-42
2022/05/14 05:45:15;;;;;;;69.55;49.90;;;18.10;56.50;;;;;;4912892;28;91974;-41
2022/05/14 05:47:41;;;;;;;69.07;49.60;;;18.10;56.30;;;;;;4923628;28;90941;-43
2022/05/14 05:50:07;;;;;;;70.57;49.90;;;18.10;56.20;;;;;;4920874;28;93606;-44
2022/05/14 05:52:33;;;;;;;70.55;49.95;;;18.10;56.30;;;;;;4932227;28;91172;-44
2022/05/14 05:57:44;;;;;;;68.95;49.85;;;18.20;56.30;;;;;;4928708;28;90063;-44
2022/05/14 06:00:19;;;;;;;70.80;49.85;;;18.20;56.50;;;;;;4924557;28;89728;-42
2022/05/14 06:02:46;;;;;;;69.55;49.80;;;18.20;56.10;;;;;;4928655;28;90023;-41
2022/05/14 06:05:12;;;;;;;69.38;49.65;;;18.20;56.20;;;;;;4923038;28;90931;-44
2022/05/14 06:07:39;;;;;;;70.95;49.78;;;18.20;56.30;;;;;;4929776;28;91180;-43
2022/05/14 06:10:07;;;;;;;69.93;49.83;;;18.20;56.10;;;;;;4917182;28;92277;-44
2022/05/14 06:12:35;;;;;;;70.95;50.22;;;18.20;56.10;;;;;;4925174;28;90497;-44
2022/05/14 06:15:01;;;;;;;70.47;50.25;;;18.30;55.70;;;;;;4921346;28;92997;-41
2022/05/14 06:17:27;;;;;;;70.50;49.97;;;18.20;56.40;;;;;;4925468;28;90905;-41
2022/05/14 06:19:52;;;;;;;70.32;50.15;;;18.30;56.00;;;;;;4929174;28;93607;-43
2022/05/14 06:22:19;;;;;;;70.38;50.13;;;18.30;55.80;;;;;;4930463;28;93886;-44
2022/05/14 06:24:45;;;;;;;71.13;49.92;;;18.30;55.70;;;;;;4923235;28;91046;-44
2022/05/14 06:27:10;;;;;;;70.40;50.33;;;18.30;55.70;;;;;;4918291;28;89943;-42
2022/05/14 06:29:36;;;;;;;71.03;49.83;;;18.40;55.90;;;;;;4921182;28;90382;-40
2022/05/14 06:32:02;;;;;;;69.90;50.05;;;18.40;55.50;;;;;;4921834;28;89318;-48
2022/05/14 06:34:28;;;;;;;71.80;50.05;;;18.40;55.70;;;;;;4929009;28;90190;-41
2022/05/14 06:36:53;;;;;;;70.10;50.20;;;18.40;55.60;;;;;;4928019;28;90326;-41
2022/05/14 06:39:19;;;;;;;70.82;50.15;;;18.40;55.70;;;;;;4925160;28;93828;-41
2022/05/14 06:41:45;;;;;;;70.95;50.10;;;18.50;55.40;;;;;;4920873;28;91062;-42
2022/05/14 06:44:11;;;;;;;71.25;50.28;;;18.50;55.40;;;;;;4927475;28;93345;-42
2022/05/14 06:46:37;;;;;;;70.07;49.95;;;18.50;55.50;;;;;;4918213;28;90492;-39
2022/05/14 06:49:04;;;;;;;70.72;50.50;;;18.50;55.30;;;;;;4921747;28;90161;-40
2022/05/14 06:51:31;;;;;;;70.25;49.83;;;18.60;55.40;;;;;;4926356;28;89933;-43
2022/05/14 06:54:02;;;;;;;69.97;49.85;;;18.60;55.20;;;;;;4920183;28;95095;-43
2022/05/14 06:56:32;;;;;;;70.25;50.17;;;18.60;55.40;;;;;;4920697;28;89381;-43
2022/05/14 06:58:59;;;;;;;71.35;50.17;;;18.60;55.10;;;;;;4918836;28;91754;-46
2022/05/14 07:01:25;;;;;;;71.18;50.38;;;18.70;55.20;;;;;;4923394;28;91137;-41
2022/05/14 07:06:42;;;;;;;70.13;50.15;;;18.70;55.10;;;;;;4916085;28;91830;-42
2022/05/14 07:09:15;;;;;;;71.28;50.33;;;18.70;55.00;;;;;;4923593;28;89881;-44
2022/05/14 07:11:43;;;;;;;71.70;50.22;;;18.80;54.90;;;;;;4925323;28;90439;-43
2022/05/14 07:14:12;;;;;;;71.15;50.55;;;18.80;54.80;;;;;;4915378;28;90058;-42
2022/05/14 07:16:38;;;;;;;72.75;50.40;;;18.80;54.60;;;;;;4914772;28;90311;-43
2022/05/14 07:19:06;;;;;;;70.95;50.25;;;18.80;54.90;;;;;;4926514;28;90197;-46
2022/05/14 07:21:34;;;;;;;72.43;50.80;;;18.80;54.80;;;;;;4921023;28;89201;-42
2022/05/14 07:23:59;;;;;;;71.53;50.67;;;18.90;54.80;;;;;;4926548;28;91421;-44
2022/05/14 07:26:27;;;;;;;72.20;50.45;;;18.90;54.70;;;;;;4927222;28;90258;-46
2022/05/14 07:28:52;;;;;;;71.03;50.20;;;18.90;54.50;;;;;;4917429;28;93384;-40
2022/05/14 07:31:18;;;;;;;71.85;50.42;;;18.90;54.50;;;;;;4918951;28;90508;-43
2022/05/14 07:33:44;;;;;;;71.55;50.40;;;18.90;54.50;;;;;;4924511;28;90778;-41
2022/05/14 07:36:17;;;;;;;71.03;50.35;;;19.00;54.60;;;;;;4925367;28;90300;-42
2022/05/14 07:38:43;;;;;;;70.65;50.38;;;19.00;54.40;;;;;;4918329;28;90168;-43
2022/05/14 07:41:11;;;;;;;72.25;50.42;;;19.00;54.30;;;;;;4924298;28;91001;-43
2022/05/14 07:43:39;;;;;;;72.40;50.63;;;19.00;54.30;;;;;;4923621;28;93142;-41
2022/05/14 07:46:10;;;;;;;71.18;50.38;;;19.00;54.30;;;;;;4918220;28;89428;-44
2022/05/14 07:48:38;;;;;;;71.50;50.40;;;19.00;54.20;;;;;;4920006;28;90434;-42
2022/05/14 07:51:07;;;;;;;71.95;50.78;;;19.00;54.10;;;;;;4918566;28;95558;-41
2022/05/14 07:53:33;;;;;;;71.13;50.55;;;19.10;54.30;;;;;;4924320;28;92076;-42
2022/05/14 07:56:00;;;;;;;71.60;50.53;;;19.10;54.30;;;;;;4923083;28;92108;-43
2022/05/14 07:58:26;;;;;;;72.45;50.50;;;19.10;54.30;;;;;;4916811;28;92489;-41
2022/05/14 08:00:52;;;;;;;73.97;50.55;;;19.20;54.40;;;;;;4916615;28;89932;-41
2022/05/14 08:03:18;;;;;;;73.43;50.63;;;19.20;54.50;;;;;;4919173;28;90727;-43
2022/05/14 08:05:44;;;;;;;73.75;50.75;;;19.30;55.40;;;;;;4922207;28;90002;-43
2022/05/14 08:08:09;;;;;;;72.78;50.90;;;19.30;54.90;;;;;;4921215;28;90550;-41
2022/05/14 08:10:36;;;;;;;74.75;50.85;;;19.30;55.10;;;;;;4926504;28;91162;-44
2022/05/14 08:13:02;;;;;;;77.20;50.78;;;19.30;55.00;;;;;;4915008;28;90315;-44
2022/05/14 08:15:28;;;;;;;79.50;51.00;;;19.30;55.50;;;;;;4917211;28;90244;-44
2022/05/14 08:17:54;;;;;;;76.10;51.22;;;19.40;55.80;;;;;;4918640;28;91331;-42
2022/05/14 08:20:21;;;;;;;80.10;50.83;;;19.40;56.20;;;;;;4914515;28;90064;-42
2022/05/14 08:25:31;;;;;;;80.55;51.05;;;19.50;56.30;;;;;;4922041;28;90821;-41
2022/05/14 08:27:57;;;;;;;80.03;51.47;;;19.50;56.50;;;;;;4926383;28;92123;-41
2022/05/14 08:30:29;;;;;;;77.20;51.35;;;19.60;56.60;;;;;;4920903;28;89770;-40
2022/05/14 08:32:55;;;;;;;74.90;51.55;;;19.60;57.10;;;;;;4913702;28;91043;-40
2022/05/14 08:35:22;;;;;;;77.90;51.28;;;19.60;56.80;;;;;;4923880;28;91006;-39
2022/05/14 08:37:50;;;;;;;80.90;51.45;;;19.60;57.10;;;;;;4919536;28;90153;-40
2022/05/14 08:40:20;;;;;;;80.88;51.60;;;19.60;57.10;;;;;;4924592;28;90861;-41
2022/05/14 08:42:53;;;;;;;78.10;51.55;;;19.70;57.10;;;;;;4922432;28;91734;-42
2022/05/14 08:45:21;;;;;;;76.35;51.10;;;19.80;57.40;;;;;;4910342;28;94304;-39
2022/05/14 08:47:57;;;;;;;78.43;51.67;;;19.80;57.20;;;;;;4913477;28;90124;-43
2022/05/14 08:50:34;;;;;;;76.85;51.40;;;19.80;56.40;;;;;;4919503;28;89964;-42
2022/05/14 08:53:01;;;;;;;82.10;52.40;;;19.80;56.50;;;;;;4921522;28;90427;-42
2022/05/14 08:55:39;;;;;;;78.97;52.35;;;19.90;57.60;;;;;;4926643;28;89883;-39
2022/05/14 08:58:14;;;;;;;80.82;52.15;;;19.90;56.60;;;;;;4914620;28;89535;-40
2022/05/14 09:00:40;;;;;;;84.55;53.35;;;19.90;56.70;;;;;;4916727;28;89856;-42
2022/05/14 09:03:05;;;;;;;86.05;53.35;;;20.00;57.10;;;;;;4929750;28;90377;-42
2022/05/14 09:05:34;;;;;;;90.20;54.28;;;20.00;57.30;;;;;;4925031;28;96149;-41
2022/05/14 09:08:01;;;;;;;83.30;54.10;;;20.00;57.50;;;;;;4918035;28;91462;-39
2022/05/14 09:10:30;;;;;;;85.20;54.20;;;20.10;57.60;;;;;;4925173;28;89982;-43
2022/05/14 09:13:22;;;;;;;88.70;54.38;;;20.10;57.40;;;;;;4922723;28;91705;-41
2022/05/14 09:15:58;;;;;;;89.72;54.00;;;20.10;57.10;;;;;;4920499;28;94173;-41
2022/05/14 09:18:29;;;;;;;85.75;53.78;;;20.10;57.50;;;;;;4916404;28;90683;-42
2022/05/14 09:21:08;;;;;;;82.95;54.08;;;20.10;56.80;;;;;;4916329;28;92583;-39
2022/05/14 09:23:44;;;;;;;88.53;54.22;;;20.20;56.70;;;;;;4920565;28;91010;-39
2022/05/14 09:26:19;;;;;;;85.82;54.35;;;20.30;56.70;;;;;;4914141;28;91140;-41
2022/05/14 09:28:53;;;;;;;89.75;54.78;;;20.30;56.50;;;;;;4922433;28;89668;-43
2022/05/14 09:31:34;;;;;;;89.35;54.67;;;20.30;56.30;;;;;;4925629;28;89989;-42
2022/05/14 09:34:13;;;;;;;86.45;54.83;;;20.30;56.40;;;;;;4922710;28;92891;-42
2022/05/14 09:36:39;;;;;;;90.88;54.45;;;20.40;56.20;;;;;;4862834;28;91585;-43
2022/05/14 09:39:17;;;;;;;89.70;54.58;;;20.40;56.30;;;;;;4923254;28;90970;-45
2022/05/14 09:42:25;;;;;;;90.63;55.00;;;20.50;56.30;;;;;;4921318;28;90903;-42
2022/05/14 09:44:52;;;;;;;94.82;54.80;;;20.50;56.50;;;;;;4920344;28;90390;-43
2022/05/14 09:47:31;;;;;;;85.93;55.00;;;20.60;57.40;;;;;;4907838;28;90932;-42
2022/05/14 09:50:04;;;;;;;90.47;55.00;;;20.60;56.80;;;;;;4926245;28;94835;-43
2022/05/14 09:52:34;;;;;;;89.18;54.50;;;20.60;57.20;;;;;;4928228;28;89821;-41
2022/05/14 09:55:03;;;;;;;87.07;55.20;;;20.70;56.80;;;;;;4928485;28;90486;-42
2022/05/14 09:57:49;;;;;;;88.07;55.15;;;20.70;56.60;;;;;;4928603;28;90217;-41
2022/05/14 10:00:33;;;;;;;85.93;54.33;;;20.70;56.20;;;;;;4932959;28;90871;-41
2022/05/14 10:03:21;;;;;;;83.57;54.55;;;20.80;56.00;;;;;;4931793;28;89933;-42
2022/05/14 10:05:56;;;;;;;87.30;54.95;;;20.80;55.70;;;;;;4918816;28;90287;-43
2022/05/14 10:08:38;;;;;;;84.10;53.95;;;20.80;55.60;;;;;;4920769;28;90165;-41
2022/05/14 10:11:30;;;;;;;84.00;54.47;;;20.90;55.40;;;;;;4926412;28;90200;-42
2022/05/14 10:14:20;;;;;;;85.50;54.67;;;20.90;55.30;;;;;;4922698;28;90457;-42
2022/05/14 10:17:14;;;;;;;87.97;55.13;;;20.90;55.20;;;;;;4919152;28;95187;-42
2022/05/14 10:20:21;;;;;;;86.82;54.75;;;20.90;55.00;;;;;;4916925;28;90546;-44
2022/05/14 10:28:52;;;;;;;83.97;54.10;;;21.00;54.50;;;;;;4922965;28;91173;-44
2022/05/14 10:31:20;;;;;;;83.70;54.30;;;21.00;55.00;;;;;;4922819;28;91423;-42
2022/05/14 10:33:48;;;;;;;85.10;54.45;;;21.00;54.20;;;;;;4919000;28;90269;-42
2022/05/14 10:36:17;;;;;;;87.28;54.72;;;21.10;54.00;;;;;;4921210;28;90130;-44
2022/05/14 10:38:51;;;;;;;83.03;54.03;;;21.10;53.90;;;;;;4923262;28;90655;-42
2022/05/14 10:41:43;;;;;;;85.03;54.47;;;21.10;53.80;;;;;;4911893;28;90623;-43
2022/05/14 10:44:17;;;;;;;84.05;54.38;;;21.10;53.60;;;;;;4921107;28;91117;-43
2022/05/14 10:46:46;;;;;;;82.85;54.35;;;21.10;53.50;;;;;;4915096;28;89889;-44
2022/05/14 10:49:34;;;;;;;85.90;54.67;;;21.10;53.50;;;;;;4912390;28;90831;-44
2022/05/14 10:52:00;;;;;;;83.18;54.08;;;21.20;53.40;;;;;;4919577;28;90011;-47
2022/05/14 10:54:26;;;;;;;82.35;53.97;;;21.20;53.30;;;;;;4917596;28;91011;-43
2022/05/14 10:56:56;;;;;;;83.00;54.60;;;21.20;53.20;;;;;;4915430;28;90445;-43
2022/05/14 10:59:40;;;;;;;83.88;53.95;;;21.20;53.10;;;;;;4917037;28;94946;-43
2022/05/14 11:02:13;;;;;;;87.47;54.38;;;21.20;53.00;;;;;;4917816;28;90436;-43
2022/05/14 11:04:45;;;;;;;83.93;53.63;;;21.20;53.00;;;;;;4915189;28;91107;-43
2022/05/14 11:07:39;;;;;;;81.78;54.17;;;21.30;53.00;;;;;;4916283;28;89851;-42
2022/05/14 11:10:34;;;;;;;83.88;54.08;;;21.30;52.90;;;;;;4914798;28;90709;-41
2022/05/14 11:13:29;;;;;;;82.85;53.95;;;21.30;52.90;;;;;;4917684;28;89199;-43
2022/05/14 11:16:07;;;;;;;80.25;53.90;;;21.30;52.80;;;;;;4907311;28;90526;-44
2022/05/14 11:18:52;;;;;;;82.72;53.35;;;21.30;52.80;;;;;;4910242;28;90187;-45
2022/05/14 11:21:22;;;;;;;83.35;54.00;;;21.30;52.80;;;;;;4907955;28;92616;-43
2022/05/14 11:23:59;;;;;;;82.60;53.80;;;21.30;52.70;;;;;;4914428;28;90881;-43
2022/05/14 11:26:26;;;;;;;82.28;53.75;;;21.30;52.70;;;;;;4914240;28;95378;-43
2022/05/14 11:29:19;;;;;;;82.30;53.95;;;21.40;52.70;;;;;;4917297;28;89995;-42
2022/05/14 11:32:03;;;;;;;81.35;53.45;;;21.30;52.70;;;;;;4910170;28;90429;-44
2022/05/14 11:34:29;;;;;;;80.75;53.53;;;21.40;52.70;;;;;;4917050;28;89805;-44
2022/05/14 11:36:57;;;;;;;83.53;53.97;;;21.30;52.60;;;;;;4909313;28;90472;-44
2022/05/14 11:39:25;;;;;;;82.45;54.08;;;21.40;52.50;;;;;;4922510;28;90299;-47
2022/05/14 11:41:55;;;;;;;82.88;53.90;;;21.40;52.50;;;;;;4916867;28;90819;-43
2022/05/14 11:44:38;;;;;;;82.22;53.95;;;21.40;52.50;;;;;;4927011;28;90182;-43
2022/05/14 11:47:21;;;;;;;80.88;53.63;;;21.40;52.40;;;;;;4919041;28;91794;-43
2022/05/14 11:49:48;;;;;;;80.15;53.40;;;21.40;52.50;;;;;;4921061;28;90204;-47
2022/05/14 11:52:32;;;;;;;81.85;54.00;;;21.40;52.50;;;;;;4914738;28;91190;-48
2022/05/14 11:55:01;;;;;;;79.32;53.72;;;21.40;52.80;;;;;;4920520;28;91041;-45
2022/05/14 11:57:39;;;;;;;81.75;53.88;;;21.40;53.30;;;;;;4922666;28;90307;-48
2022/05/14 12:00:12;;;;;;;82.00;53.63;;;21.40;52.70;;;;;;4919630;28;90000;-42
2022/05/14 12:03:04;;;;;;;81.60;53.60;;;21.40;52.60;;;;;;4915055;28;95973;-43
2022/05/14 12:05:37;;;;;;;80.57;53.63;;;21.40;52.60;;;;;;4912340;28;90362;-42
2022/05/14 12:08:13;;;;;;;82.40;53.85;;;21.40;52.60;;;;;;4913924;28;91588;-42
2022/05/14 12:11:01;;;;;;;81.22;53.75;;;21.40;52.60;;;;;;4918839;28;90352;-43
2022/05/14 12:13:40;;;;;;;81.75;54.00;;;21.40;52.60;;;;;;4923932;28;90695;-43
2022/05/14 12:16:07;;;;;;;80.07;53.42;;;21.40;52.50;;;;;;4922737;28;90157;-44
2022/05/14 12:18:34;;;;;;;80.80;53.60;;;21.40;52.50;;;;;;4911407;28;95773;-46
2022/05/14 12:21:05;;;;;;;80.65;54.10;;;21.40;52.50;;;;;;4914388;28;90414;-45
2022/05/14 12:23:38;;;;;;;79.05;53.42;;;21.40;52.60;;;;;;4925478;28;91890;-44
2022/05/14 12:26:19;;;;;;;84.10;53.88;;;21.40;52.60;;;;;;4916111;28;90163;-43
2022/05/14 12:28:45;;;;;;;;;;;21.40;52.50;;;;;;4918179;28;95478;-46
2022/05/14 12:33:58;;;;;;;82.43;53.78;;;21.50;52.50;;;;;;4917278;28;90054;-43
2022/05/14 12:36:48;;;;;;;80.10;54.05;;;21.50;52.50;;;;;;4916042;28;90360;-44
2022/05/14 12:39:26;;;;;;;78.90;53.33;;;21.50;52.50;;;;;;4917705;28;94030;-44
2022/05/14 12:42:01;;;;;;;80.07;53.60;;;21.50;52.50;;;;;;4924803;28;89815;-41
2022/05/14 12:44:32;;;;;;;81.57;54.10;;;21.50;52.50;;;;;;4916821;28;91341;-42
2022/05/14 12:47:01;;;;;;;80.43;53.78;;;21.50;52.40;;;;;;4918082;28;90434;-42
2022/05/14 12:49:35;;;;;;;81.82;53.55;;;21.50;52.30;;;;;;4909426;28;91217;-47
2022/05/14 12:52:08;;;;;;;82.30;53.72;;;21.50;52.30;;;;;;4918332;28;90759;-48
2022/05/14 12:54:36;;;;;;;80.53;53.67;;;21.60;52.30;;;;;;4923164;28;89949;-42
2022/05/14 12:57:05;;;;;;;82.72;53.75;;;21.60;52.50;;;;;;4917882;28;89225;-43
2022/05/14 12:59:31;;;;;;;84.10;53.85;;;21.70;52.70;;;;;;4925469;28;89976;-41
2022/05/14 13:02:16;;;;;;;82.18;54.22;;;21.70;52.60;;;;;;4916649;28;90109;-44
2022/05/14 13:04:50;;;;;;;80.47;53.35;;;21.70;52.50;;;;;;4922738;28;92461;-44
2022/05/14 13:07:16;;;;;;;80.97;53.97;;;21.70;52.40;;;;;;4929797;28;90732;-46